sensor_id;sensor_type;location;lat;lon;timestamp;P1;durP1;ratioP1;P2;durP2;ratioP2
70667;SDS011;58242;51.250;-1.118;2023-05-29T00:00:25;6.50;;;3.30;;
70667;SDS011;58242;51.250;-1.118;2023-05-29T00:02:50;7.45;;;3.22;;
70667;SDS011;58242;51.250;-1.118;2023-05-29T00:05:16;6.60;;;3.05;;
70667;SDS011;58242;51.250;-1.118;2023-05-29T00:07:42;3.17;;;2.30;;
70667;SDS011;58242;51.250;-1.118;2023-05-29T00:10:09;4.82;;;2.60;;
70667;SDS011;58242;51.250;-1.118;2023-05-29T00:12:35;8.20;;;3.53;;
70667;SDS011;58242;51.250;-1.118;2023-05-29T00:15:01;4.55;;;2.92;;
70667;SDS011;58242;51.250;-1.118;2023-05-29T00:17:29;4.15;;;2.90;;
70667;SDS011;58242;51.250;-1.118;2023-05-29T00:19:57;4.70;;;2.70;;
70667;SDS011;58242;51.250;-1.118;2023-05-29T00:22:33;5.95;;;3.30;;
70667;SDS011;58242;51.250;-1.118;2023-05-29T00:25:02;8.30;;;3.50;;
70667;SDS011;58242;51.250;-1.118;2023-05-29T00:27:29;6.72;;;3.28;;
70667;SDS011;58242;51.250;-1.118;2023-05-29T00:29:54;5.32;;;3.20;;
70667;SDS011;58242;51.250;-1.118;2023-05-29T00:32:20;5.90;;;3.20;;
70667;SDS011;58242;51.250;-1.118;2023-05-29T00:34:45;6.95;;;3.05;;
70667;SDS011;58242;51.250;-1.118;2023-05-29T00:37:11;8.63;;;2.80;;
70667;SDS011;58242;51.250;-1.118;2023-05-29T00:39:36;3.45;;;2.65;;
70667;SDS011;58242;51.250;-1.118;2023-05-29T00:42:02;5.25;;;2.90;;
70667;SDS011;58242;51.250;-1.118;2023-05-29T00:44:28;9.00;;;3.15;;
70667;SDS011;58242;51.250;-1.118;2023-05-29T00:46:53;4.43;;;2.50;;
70667;SDS011;58242;51.250;-1.118;2023-05-29T00:49:19;6.57;;;3.13;;
70667;SDS011;58242;51.250;-1.118;2023-05-29T00:51:46;5.15;;;3.00;;
70667;SDS011;58242;51.250;-1.118;2023-05-29T00:54:14;6.18;;;2.95;;
70667;SDS011;58242;51.250;-1.118;2023-05-29T00:56:45;5.88;;;3.30;;
70667;SDS011;58242;51.250;-1.118;2023-05-29T00:59:11;9.65;;;3.10;;
70667;SDS011;58242;51.250;-1.118;2023-05-29T01:01:37;5.00;;;3.03;;
70667;SDS011;58242;51.250;-1.118;2023-05-29T01:04:04;5.00;;;2.42;;
70667;SDS011;58242;51.250;-1.118;2023-05-29T01:06:33;7.05;;;3.05;;
70667;SDS011;58242;51.250;-1.118;2023-05-29T01:08:58;5.32;;;3.00;;
70667;SDS011;58242;51.250;-1.118;2023-05-29T01:11:49;7.25;;;3.13;;
70667;SDS011;58242;51.250;-1.118;2023-05-29T01:14:33;8.30;;;2.97;;
70667;SDS011;58242;51.250;-1.118;2023-05-29T01:17:17;9.93;;;4.25;;
70667;SDS011;58242;51.250;-1.118;2023-05-29T01:20:08;4.60;;;2.45;;
70667;SDS011;58242;51.250;-1.118;2023-05-29T01:23:19;4.97;;;3.03;;
70667;SDS011;58242;51.250;-1.118;2023-05-29T01:28:51;5.40;;;3.13;;
70667;SDS011;58242;51.250;-1.118;2023-05-29T01:31:22;9.30;;;3.42;;
70667;SDS011;58242;51.250;-1.118;2023-05-29T01:33:54;4.68;;;2.70;;
70667;SDS011;58242;51.250;-1.118;2023-05-29T01:36:24;14.23;;;3.80;;
70667;SDS011;58242;51.250;-1.118;2023-05-29T01:38:50;10.60;;;3.15;;
70667;SDS011;58242;51.250;-1.118;2023-05-29T01:41:17;8.85;;;3.50;;
70667;SDS011;58242;51.250;-1.118;2023-05-29T01:43:44;8.30;;;3.25;;
70667;SDS011;58242;51.250;-1.118;2023-05-29T01:46:12;5.47;;;3.00;;
70667;SDS011;58242;51.250;-1.118;2023-05-29T01:48:38;6.55;;;3.00;;
70667;SDS011;58242;51.250;-1.118;2023-05-29T01:51:05;5.15;;;2.95;;
70667;SDS011;58242;51.250;-1.118;2023-05-29T01:53:32;7.05;;;3.30;;
70667;SDS011;58242;51.250;-1.118;2023-05-29T01:55:57;7.45;;;3.53;;
70667;SDS011;58242;51.250;-1.118;2023-05-29T01:58:23;7.55;;;3.55;;
70667;SDS011;58242;51.250;-1.118;2023-05-29T02:00:50;7.28;;;3.22;;
70667;SDS011;58242;51.250;-1.118;2023-05-29T02:03:15;5.28;;;2.88;;
70667;SDS011;58242;51.250;-1.118;2023-05-29T02:05:41;8.68;;;4.00;;
70667;SDS011;58242;51.250;-1.118;2023-05-29T02:08:06;7.30;;;3.20;;
70667;SDS011;58242;51.250;-1.118;2023-05-29T02:10:32;7.10;;;3.33;;
70667;SDS011;58242;51.250;-1.118;2023-05-29T02:12:59;5.40;;;3.03;;
70667;SDS011;58242;51.250;-1.118;2023-05-29T02:15:24;9.02;;;3.35;;
70667;SDS011;58242;51.250;-1.118;2023-05-29T02:17:50;8.50;;;3.78;;
70667;SDS011;58242;51.250;-1.118;2023-05-29T02:20:16;7.35;;;3.35;;
70667;SDS011;58242;51.250;-1.118;2023-05-29T02:22:42;3.03;;;2.67;;
70667;SDS011;58242;51.250;-1.118;2023-05-29T02:25:08;6.25;;;2.95;;
70667;SDS011;58242;51.250;-1.118;2023-05-29T02:27:33;6.40;;;2.90;;
70667;SDS011;58242;51.250;-1.118;2023-05-29T02:29:59;7.93;;;3.47;;
70667;SDS011;58242;51.250;-1.118;2023-05-29T02:32:24;3.83;;;2.75;;
70667;SDS011;58242;51.250;-1.118;2023-05-29T02:34:51;9.07;;;3.88;;
70667;SDS011;58242;51.250;-1.118;2023-05-29T02:37:17;7.95;;;3.00;;
70667;SDS011;58242;51.250;-1.118;2023-05-29T02:39:43;3.90;;;3.08;;
70667;SDS011;58242;51.250;-1.118;2023-05-29T02:42:08;5.72;;;3.00;;
70667;SDS011;58242;51.250;-1.118;2023-05-29T02:44:34;7.30;;;3.10;;
70667;SDS011;58242;51.250;-1.118;2023-05-29T02:46:59;7.97;;;3.38;;
70667;SDS011;58242;51.250;-1.118;2023-05-29T02:49:25;7.65;;;3.28;;
70667;SDS011;58242;51.250;-1.118;2023-05-29T02:51:51;6.85;;;3.10;;
70667;SDS011;58242;51.250;-1.118;2023-05-29T02:54:21;8.05;;;3.17;;
70667;SDS011;58242;51.250;-1.118;2023-05-29T02:56:47;7.55;;;3.17;;
70667;SDS011;58242;51.250;-1.118;2023-05-29T02:59:13;8.23;;;3.65;;
70667;SDS011;58242;51.250;-1.118;2023-05-29T03:01:38;5.35;;;2.90;;
70667;SDS011;58242;51.250;-1.118;2023-05-29T03:04:04;5.80;;;2.67;;
70667;SDS011;58242;51.250;-1.118;2023-05-29T03:06:29;4.90;;;2.58;;
70667;SDS011;58242;51.250;-1.118;2023-05-29T03:08:55;6.32;;;2.90;;
70667;SDS011;58242;51.250;-1.118;2023-05-29T03:11:21;10.23;;;3.92;;
70667;SDS011;58242;51.250;-1.118;2023-05-29T03:13:48;7.13;;;3.25;;
70667;SDS011;58242;51.250;-1.118;2023-05-29T03:16:14;6.13;;;3.17;;
70667;SDS011;58242;51.250;-1.118;2023-05-29T03:18:40;6.13;;;3.30;;
70667;SDS011;58242;51.250;-1.118;2023-05-29T03:21:06;7.22;;;2.55;;
70667;SDS011;58242;51.250;-1.118;2023-05-29T03:23:31;5.28;;;3.08;;
70667;SDS011;58242;51.250;-1.118;2023-05-29T03:25:57;5.15;;;2.97;;
70667;SDS011;58242;51.250;-1.118;2023-05-29T03:28:22;7.45;;;3.05;;
70667;SDS011;58242;51.250;-1.118;2023-05-29T03:30:48;4.10;;;2.63;;
70667;SDS011;58242;51.250;-1.118;2023-05-29T03:33:13;4.15;;;2.90;;
70667;SDS011;58242;51.250;-1.118;2023-05-29T03:35:39;5.30;;;3.05;;
70667;SDS011;58242;51.250;-1.118;2023-05-29T03:38:04;4.80;;;3.03;;
70667;SDS011;58242;51.250;-1.118;2023-05-29T03:40:30;5.93;;;3.08;;
70667;SDS011;58242;51.250;-1.118;2023-05-29T03:42:55;5.63;;;2.60;;
70667;SDS011;58242;51.250;-1.118;2023-05-29T03:45:21;4.03;;;2.40;;
70667;SDS011;58242;51.250;-1.118;2023-05-29T03:47:46;5.95;;;3.60;;
70667;SDS011;58242;51.250;-1.118;2023-05-29T03:50:12;8.77;;;3.33;;
70667;SDS011;58242;51.250;-1.118;2023-05-29T03:52:40;5.22;;;3.13;;
70667;SDS011;58242;51.250;-1.118;2023-05-29T03:55:08;4.85;;;2.80;;
70667;SDS011;58242;51.250;-1.118;2023-05-29T03:57:38;6.45;;;3.03;;
70667;SDS011;58242;51.250;-1.118;2023-05-29T04:00:06;5.25;;;3.25;;
70667;SDS011;58242;51.250;-1.118;2023-05-29T04:02:36;7.25;;;3.60;;
70667;SDS011;58242;51.250;-1.118;2023-05-29T04:05:02;8.40;;;3.17;;
70667;SDS011;58242;51.250;-1.118;2023-05-29T04:07:28;4.60;;;3.13;;
70667;SDS011;58242;51.250;-1.118;2023-05-29T04:09:54;5.15;;;3.33;;
70667;SDS011;58242;51.250;-1.118;2023-05-29T04:12:19;8.52;;;3.35;;
70667;SDS011;58242;51.250;-1.118;2023-05-29T04:14:45;5.13;;;3.35;;
70667;SDS011;58242;51.250;-1.118;2023-05-29T04:17:10;5.47;;;3.30;;
70667;SDS011;58242;51.250;-1.118;2023-05-29T04:19:36;4.45;;;3.00;;
70667;SDS011;58242;51.250;-1.118;2023-05-29T04:22:01;9.18;;;3.55;;
70667;SDS011;58242;51.250;-1.118;2023-05-29T04:24:26;5.53;;;3.20;;
70667;SDS011;58242;51.250;-1.118;2023-05-29T04:26:52;8.10;;;3.28;;
70667;SDS011;58242;51.250;-1.118;2023-05-29T04:29:17;9.85;;;3.58;;
70667;SDS011;58242;51.250;-1.118;2023-05-29T04:31:43;6.85;;;3.05;;
70667;SDS011;58242;51.250;-1.118;2023-05-29T04:34:09;4.68;;;3.42;;
70667;SDS011;58242;51.250;-1.118;2023-05-29T04:36:35;6.65;;;3.55;;
70667;SDS011;58242;51.250;-1.118;2023-05-29T04:39:03;5.17;;;3.40;;
70667;SDS011;58242;51.250;-1.118;2023-05-29T04:41:29;4.85;;;3.20;;
70667;SDS011;58242;51.250;-1.118;2023-05-29T04:43:56;8.82;;;3.90;;
70667;SDS011;58242;51.250;-1.118;2023-05-29T04:46:22;8.55;;;3.38;;
70667;SDS011;58242;51.250;-1.118;2023-05-29T04:48:50;7.30;;;3.03;;
70667;SDS011;58242;51.250;-1.118;2023-05-29T04:51:22;7.32;;;3.53;;
70667;SDS011;58242;51.250;-1.118;2023-05-29T04:53:48;5.40;;;2.88;;
70667;SDS011;58242;51.250;-1.118;2023-05-29T04:56:19;8.90;;;3.25;;
70667;SDS011;58242;51.250;-1.118;2023-05-29T04:58:44;6.82;;;3.13;;
70667;SDS011;58242;51.250;-1.118;2023-05-29T05:01:10;6.97;;;3.33;;
70667;SDS011;58242;51.250;-1.118;2023-05-29T05:03:42;5.32;;;2.85;;
70667;SDS011;58242;51.250;-1.118;2023-05-29T05:06:08;6.93;;;3.50;;
70667;SDS011;58242;51.250;-1.118;2023-05-29T05:08:34;4.22;;;2.75;;
70667;SDS011;58242;51.250;-1.118;2023-05-29T05:11:00;3.75;;;2.72;;
70667;SDS011;58242;51.250;-1.118;2023-05-29T05:13:26;7.70;;;2.97;;
70667;SDS011;58242;51.250;-1.118;2023-05-29T05:15:52;10.02;;;3.17;;
70667;SDS011;58242;51.250;-1.118;2023-05-29T05:18:18;5.15;;;3.00;;
70667;SDS011;58242;51.250;-1.118;2023-05-29T05:20:43;8.30;;;4.15;;
70667;SDS011;58242;51.250;-1.118;2023-05-29T05:23:09;4.88;;;2.92;;
70667;SDS011;58242;51.250;-1.118;2023-05-29T05:25:36;4.78;;;3.30;;
70667;SDS011;58242;51.250;-1.118;2023-05-29T05:28:02;6.07;;;2.97;;
70667;SDS011;58242;51.250;-1.118;2023-05-29T05:30:28;6.47;;;2.83;;
70667;SDS011;58242;51.250;-1.118;2023-05-29T05:32:54;4.75;;;2.60;;
70667;SDS011;58242;51.250;-1.118;2023-05-29T05:35:20;5.80;;;3.08;;
70667;SDS011;58242;51.250;-1.118;2023-05-29T05:37:46;6.72;;;2.80;;
70667;SDS011;58242;51.250;-1.118;2023-05-29T05:40:11;5.40;;;2.65;;
70667;SDS011;58242;51.250;-1.118;2023-05-29T05:42:37;4.95;;;2.80;;
70667;SDS011;58242;51.250;-1.118;2023-05-29T05:45:03;4.63;;;2.80;;
70667;SDS011;58242;51.250;-1.118;2023-05-29T05:47:29;4.53;;;3.00;;
70667;SDS011;58242;51.250;-1.118;2023-05-29T05:49:55;4.97;;;2.90;;
70667;SDS011;58242;51.250;-1.118;2023-05-29T05:52:21;4.13;;;2.53;;
70667;SDS011;58242;51.250;-1.118;2023-05-29T05:54:46;5.22;;;3.33;;
70667;SDS011;58242;51.250;-1.118;2023-05-29T05:57:11;5.13;;;2.88;;
70667;SDS011;58242;51.250;-1.118;2023-05-29T05:59:37;4.95;;;2.70;;
70667;SDS011;58242;51.250;-1.118;2023-05-29T06:02:03;5.30;;;2.50;;
70667;SDS011;58242;51.250;-1.118;2023-05-29T06:04:29;4.65;;;3.00;;
70667;SDS011;58242;51.250;-1.118;2023-05-29T06:06:55;7.82;;;3.50;;
70667;SDS011;58242;51.250;-1.118;2023-05-29T06:09:21;6.53;;;3.65;;
70667;SDS011;58242;51.250;-1.118;2023-05-29T06:11:47;5.20;;;2.97;;
70667;SDS011;58242;51.250;-1.118;2023-05-29T06:14:13;5.13;;;2.40;;
70667;SDS011;58242;51.250;-1.118;2023-05-29T06:16:39;5.53;;;2.67;;
70667;SDS011;58242;51.250;-1.118;2023-05-29T06:19:04;4.80;;;2.47;;
70667;SDS011;58242;51.250;-1.118;2023-05-29T06:21:31;7.50;;;3.55;;
70667;SDS011;58242;51.250;-1.118;2023-05-29T06:23:57;6.43;;;2.60;;
70667;SDS011;58242;51.250;-1.118;2023-05-29T06:26:23;7.40;;;2.70;;
70667;SDS011;58242;51.250;-1.118;2023-05-29T06:28:50;6.50;;;2.50;;
70667;SDS011;58242;51.250;-1.118;2023-05-29T06:31:16;8.60;;;2.63;;
70667;SDS011;58242;51.250;-1.118;2023-05-29T06:33:42;4.82;;;2.60;;
70667;SDS011;58242;51.250;-1.118;2023-05-29T06:36:07;3.20;;;2.35;;
70667;SDS011;58242;51.250;-1.118;2023-05-29T06:38:33;7.40;;;2.67;;
70667;SDS011;58242;51.250;-1.118;2023-05-29T06:40:59;8.70;;;3.17;;
70667;SDS011;58242;51.250;-1.118;2023-05-29T06:43:24;4.80;;;2.80;;
70667;SDS011;58242;51.250;-1.118;2023-05-29T06:45:50;4.18;;;2.58;;
70667;SDS011;58242;51.250;-1.118;2023-05-29T06:48:16;4.68;;;3.00;;
70667;SDS011;58242;51.250;-1.118;2023-05-29T06:50:42;4.57;;;2.38;;
70667;SDS011;58242;51.250;-1.118;2023-05-29T06:53:07;6.63;;;3.15;;
70667;SDS011;58242;51.250;-1.118;2023-05-29T06:55:32;4.70;;;2.50;;
70667;SDS011;58242;51.250;-1.118;2023-05-29T06:57:58;5.35;;;2.40;;
70667;SDS011;58242;51.250;-1.118;2023-05-29T07:00:24;8.05;;;2.88;;
70667;SDS011;58242;51.250;-1.118;2023-05-29T07:02:49;6.20;;;3.28;;
70667;SDS011;58242;51.250;-1.118;2023-05-29T07:05:16;6.00;;;2.92;;
70667;SDS011;58242;51.250;-1.118;2023-05-29T07:07:41;3.88;;;2.47;;
70667;SDS011;58242;51.250;-1.118;2023-05-29T07:10:07;4.90;;;2.70;;
70667;SDS011;58242;51.250;-1.118;2023-05-29T07:12:32;5.32;;;2.97;;
70667;SDS011;58242;51.250;-1.118;2023-05-29T07:14:58;5.72;;;2.50;;
70667;SDS011;58242;51.250;-1.118;2023-05-29T07:17:23;6.32;;;2.22;;
70667;SDS011;58242;51.250;-1.118;2023-05-29T07:19:49;5.20;;;2.53;;
70667;SDS011;58242;51.250;-1.118;2023-05-29T07:22:15;7.53;;;3.33;;
70667;SDS011;58242;51.250;-1.118;2023-05-29T07:24:40;5.38;;;2.53;;
70667;SDS011;58242;51.250;-1.118;2023-05-29T07:27:06;5.43;;;2.33;;
70667;SDS011;58242;51.250;-1.118;2023-05-29T07:29:32;6.60;;;2.60;;
70667;SDS011;58242;51.250;-1.118;2023-05-29T07:31:58;7.28;;;2.65;;
70667;SDS011;58242;51.250;-1.118;2023-05-29T07:34:23;8.35;;;2.65;;
70667;SDS011;58242;51.250;-1.118;2023-05-29T07:36:59;5.65;;;2.47;;
70667;SDS011;58242;51.250;-1.118;2023-05-29T07:39:27;4.18;;;2.30;;
70667;SDS011;58242;51.250;-1.118;2023-05-29T07:41:52;6.60;;;2.60;;
70667;SDS011;58242;51.250;-1.118;2023-05-29T07:44:18;3.65;;;2.35;;
70667;SDS011;58242;51.250;-1.118;2023-05-29T07:46:44;4.20;;;1.80;;
70667;SDS011;58242;51.250;-1.118;2023-05-29T07:49:10;5.43;;;2.33;;
70667;SDS011;58242;51.250;-1.118;2023-05-29T07:51:36;3.72;;;2.33;;
70667;SDS011;58242;51.250;-1.118;2023-05-29T07:54:02;5.60;;;2.65;;
70667;SDS011;58242;51.250;-1.118;2023-05-29T07:56:27;5.47;;;2.53;;
70667;SDS011;58242;51.250;-1.118;2023-05-29T07:58:53;10.30;;;2.60;;
70667;SDS011;58242;51.250;-1.118;2023-05-29T08:01:20;4.75;;;2.28;;
70667;SDS011;58242;51.250;-1.118;2023-05-29T08:03:49;10.68;;;3.17;;
70667;SDS011;58242;51.250;-1.118;2023-05-29T08:06:14;5.90;;;2.80;;
70667;SDS011;58242;51.250;-1.118;2023-05-29T08:08:39;4.20;;;2.20;;
70667;SDS011;58242;51.250;-1.118;2023-05-29T08:11:05;6.00;;;2.75;;
70667;SDS011;58242;51.250;-1.118;2023-05-29T08:13:31;2.45;;;1.85;;
70667;SDS011;58242;51.250;-1.118;2023-05-29T08:15:56;5.72;;;2.30;;
70667;SDS011;58242;51.250;-1.118;2023-05-29T08:18:25;5.35;;;2.63;;
70667;SDS011;58242;51.250;-1.118;2023-05-29T08:20:51;7.25;;;2.30;;
70667;SDS011;58242;51.250;-1.118;2023-05-29T08:23:17;4.40;;;2.42;;
70667;SDS011;58242;51.250;-1.118;2023-05-29T08:25:43;4.78;;;2.15;;
70667;SDS011;58242;51.250;-1.118;2023-05-29T08:28:10;4.97;;;2.65;;
70667;SDS011;58242;51.250;-1.118;2023-05-29T08:30:35;4.28;;;2.00;;
70667;SDS011;58242;51.250;-1.118;2023-05-29T08:33:02;6.15;;;2.40;;
70667;SDS011;58242;51.250;-1.118;2023-05-29T08:35:28;5.97;;;2.50;;
70667;SDS011;58242;51.250;-1.118;2023-05-29T08:37:54;4.38;;;2.00;;
70667;SDS011;58242;51.250;-1.118;2023-05-29T08:40:20;5.15;;;2.17;;
70667;SDS011;58242;51.250;-1.118;2023-05-29T08:45:35;5.40;;;2.63;;
70667;SDS011;58242;51.250;-1.118;2023-05-29T08:48:06;3.33;;;2.05;;
70667;SDS011;58242;51.250;-1.118;2023-05-29T08:50:34;6.28;;;2.25;;
70667;SDS011;58242;51.250;-1.118;2023-05-29T08:53:00;3.35;;;2.00;;
70667;SDS011;58242;51.250;-1.118;2023-05-29T08:55:25;4.78;;;2.50;;
70667;SDS011;58242;51.250;-1.118;2023-05-29T08:57:51;4.70;;;2.25;;
70667;SDS011;58242;51.250;-1.118;2023-05-29T09:00:17;4.70;;;2.28;;
70667;SDS011;58242;51.250;-1.118;2023-05-29T09:02:45;3.37;;;2.43;;
70667;SDS011;58242;51.250;-1.118;2023-05-29T09:05:14;6.10;;;2.40;;
70667;SDS011;58242;51.250;-1.118;2023-05-29T09:07:39;4.25;;;2.50;;
70667;SDS011;58242;51.250;-1.118;2023-05-29T09:10:06;2.38;;;2.15;;
70667;SDS011;58242;51.250;-1.118;2023-05-29T09:12:34;3.58;;;2.17;;
70667;SDS011;58242;51.250;-1.118;2023-05-29T09:15:00;4.32;;;2.20;;
70667;SDS011;58242;51.250;-1.118;2023-05-29T09:17:30;5.03;;;2.50;;
70667;SDS011;58242;51.250;-1.118;2023-05-29T09:19:59;4.57;;;2.35;;
70667;SDS011;58242;51.250;-1.118;2023-05-29T09:22:25;4.90;;;2.30;;
70667;SDS011;58242;51.250;-1.118;2023-05-29T09:24:51;4.75;;;2.30;;
70667;SDS011;58242;51.250;-1.118;2023-05-29T09:27:18;6.28;;;2.63;;
70667;SDS011;58242;51.250;-1.118;2023-05-29T09:29:44;5.57;;;2.53;;
70667;SDS011;58242;51.250;-1.118;2023-05-29T09:32:14;5.10;;;2.42;;
70667;SDS011;58242;51.250;-1.118;2023-05-29T09:34:42;3.53;;;2.05;;
70667;SDS011;58242;51.250;-1.118;2023-05-29T09:37:08;2.75;;;1.90;;
70667;SDS011;58242;51.250;-1.118;2023-05-29T09:39:55;4.07;;;2.30;;
70667;SDS011;58242;51.250;-1.118;2023-05-29T09:42:20;3.15;;;2.00;;
70667;SDS011;58242;51.250;-1.118;2023-05-29T09:44:48;6.13;;;2.45;;
70667;SDS011;58242;51.250;-1.118;2023-05-29T09:47:18;4.82;;;2.35;;
70667;SDS011;58242;51.250;-1.118;2023-05-29T09:49:45;5.07;;;2.83;;
70667;SDS011;58242;51.250;-1.118;2023-05-29T09:52:14;2.75;;;1.90;;
70667;SDS011;58242;51.250;-1.118;2023-05-29T09:54:43;4.70;;;1.95;;
70667;SDS011;58242;51.250;-1.118;2023-05-29T09:57:10;5.22;;;2.03;;
70667;SDS011;58242;51.250;-1.118;2023-05-29T09:59:39;3.70;;;2.35;;
70667;SDS011;58242;51.250;-1.118;2023-05-29T10:02:06;3.13;;;1.95;;
70667;SDS011;58242;51.250;-1.118;2023-05-29T10:04:36;4.82;;;2.20;;
70667;SDS011;58242;51.250;-1.118;2023-05-29T10:07:05;2.30;;;2.03;;
70667;SDS011;58242;51.250;-1.118;2023-05-29T10:09:51;4.57;;;2.28;;
70667;SDS011;58242;51.250;-1.118;2023-05-29T10:14:51;5.70;;;1.98;;
70667;SDS011;58242;51.250;-1.118;2023-05-29T10:17:25;4.15;;;2.45;;
70667;SDS011;58242;51.250;-1.118;2023-05-29T10:19:54;4.90;;;2.28;;
70667;SDS011;58242;51.250;-1.118;2023-05-29T10:22:24;3.30;;;2.25;;
70667;SDS011;58242;51.250;-1.118;2023-05-29T10:24:51;2.90;;;1.83;;
70667;SDS011;58242;51.250;-1.118;2023-05-29T10:27:17;3.15;;;2.05;;
70667;SDS011;58242;51.250;-1.118;2023-05-29T10:35:08;2.72;;;1.80;;
70667;SDS011;58242;51.250;-1.118;2023-05-29T10:40:23;2.88;;;1.80;;
70667;SDS011;58242;51.250;-1.118;2023-05-29T10:42:51;1.85;;;1.40;;
70667;SDS011;58242;51.250;-1.118;2023-05-29T10:47:54;1.70;;;1.60;;
70667;SDS011;58242;51.250;-1.118;2023-05-29T10:53:07;3.75;;;2.15;;
70667;SDS011;58242;51.250;-1.118;2023-05-29T10:55:37;5.28;;;2.67;;
70667;SDS011;58242;51.250;-1.118;2023-05-29T10:58:06;2.78;;;1.70;;
70667;SDS011;58242;51.250;-1.118;2023-05-29T11:00:44;3.83;;;2.47;;
70667;SDS011;58242;51.250;-1.118;2023-05-29T11:03:14;3.50;;;1.83;;
70667;SDS011;58242;51.250;-1.118;2023-05-29T11:05:56;2.95;;;1.90;;
70667;SDS011;58242;51.250;-1.118;2023-05-29T11:08:42;4.13;;;1.67;;
70667;SDS011;58242;51.250;-1.118;2023-05-29T11:13:38;4.88;;;2.58;;
70667;SDS011;58242;51.250;-1.118;2023-05-29T11:18:51;6.15;;;2.42;;
70667;SDS011;58242;51.250;-1.118;2023-05-29T11:23:49;3.80;;;1.83;;
70667;SDS011;58242;51.250;-1.118;2023-05-29T11:26:16;5.20;;;3.13;;
70667;SDS011;58242;51.250;-1.118;2023-05-29T11:28:42;3.28;;;2.22;;
70667;SDS011;58242;51.250;-1.118;2023-05-29T11:31:08;3.00;;;1.95;;
70667;SDS011;58242;51.250;-1.118;2023-05-29T11:33:34;2.90;;;1.88;;
70667;SDS011;58242;51.250;-1.118;2023-05-29T11:36:04;4.30;;;1.88;;
70667;SDS011;58242;51.250;-1.118;2023-05-29T11:38:30;2.00;;;1.50;;
70667;SDS011;58242;51.250;-1.118;2023-05-29T11:40:56;4.68;;;1.85;;
70667;SDS011;58242;51.250;-1.118;2023-05-29T11:43:23;5.25;;;1.88;;
70667;SDS011;58242;51.250;-1.118;2023-05-29T11:45:49;3.75;;;2.08;;
70667;SDS011;58242;51.250;-1.118;2023-05-29T11:48:15;5.10;;;2.17;;
70667;SDS011;58242;51.250;-1.118;2023-05-29T11:50:40;5.40;;;2.45;;
70667;SDS011;58242;51.250;-1.118;2023-05-29T11:53:07;3.60;;;1.85;;
70667;SDS011;58242;51.250;-1.118;2023-05-29T11:55:33;5.20;;;2.47;;
70667;SDS011;58242;51.250;-1.118;2023-05-29T11:57:59;2.13;;;1.77;;
70667;SDS011;58242;51.250;-1.118;2023-05-29T12:00:26;5.10;;;2.75;;
70667;SDS011;58242;51.250;-1.118;2023-05-29T12:02:57;1.73;;;1.63;;
70667;SDS011;58242;51.250;-1.118;2023-05-29T12:05:23;4.72;;;2.65;;
70667;SDS011;58242;51.250;-1.118;2023-05-29T12:10:18;4.53;;;2.35;;
70667;SDS011;58242;51.250;-1.118;2023-05-29T12:12:51;4.35;;;1.88;;
70667;SDS011;58242;51.250;-1.118;2023-05-29T12:15:17;4.25;;;2.10;;
70667;SDS011;58242;51.250;-1.118;2023-05-29T12:17:46;7.65;;;2.30;;
70667;SDS011;58242;51.250;-1.118;2023-05-29T12:20:13;5.78;;;2.50;;
70667;SDS011;58242;51.250;-1.118;2023-05-29T12:22:40;2.80;;;2.10;;
70667;SDS011;58242;51.250;-1.118;2023-05-29T12:25:07;4.20;;;2.33;;
70667;SDS011;58242;51.250;-1.118;2023-05-29T12:27:38;4.60;;;2.08;;
70667;SDS011;58242;51.250;-1.118;2023-05-29T12:30:11;3.05;;;2.10;;
70667;SDS011;58242;51.250;-1.118;2023-05-29T12:32:40;3.55;;;2.15;;
70667;SDS011;58242;51.250;-1.118;2023-05-29T12:35:10;2.63;;;2.00;;
70667;SDS011;58242;51.250;-1.118;2023-05-29T12:37:53;2.50;;;1.90;;
70667;SDS011;58242;51.250;-1.118;2023-05-29T12:42:53;3.22;;;1.77;;
70667;SDS011;58242;51.250;-1.118;2023-05-29T12:45:22;2.63;;;1.77;;
70667;SDS011;58242;51.250;-1.118;2023-05-29T12:50:20;3.40;;;1.67;;
70667;SDS011;58242;51.250;-1.118;2023-05-29T12:53:00;5.78;;;2.05;;
70667;SDS011;58242;51.250;-1.118;2023-05-29T12:55:28;2.45;;;2.10;;
70667;SDS011;58242;51.250;-1.118;2023-05-29T12:57:55;2.80;;;1.98;;
70667;SDS011;58242;51.250;-1.118;2023-05-29T13:00:21;3.85;;;2.05;;
70667;SDS011;58242;51.250;-1.118;2023-05-29T13:02:48;5.78;;;2.40;;
70667;SDS011;58242;51.250;-1.118;2023-05-29T13:05:14;3.55;;;2.03;;
70667;SDS011;58242;51.250;-1.118;2023-05-29T13:07:44;7.40;;;3.08;;
70667;SDS011;58242;51.250;-1.118;2023-05-29T13:10:11;2.00;;;1.80;;
70667;SDS011;58242;51.250;-1.118;2023-05-29T13:12:37;2.70;;;2.08;;
70667;SDS011;58242;51.250;-1.118;2023-05-29T13:15:02;4.18;;;2.05;;
70667;SDS011;58242;51.250;-1.118;2023-05-29T13:17:28;3.20;;;2.03;;
70667;SDS011;58242;51.250;-1.118;2023-05-29T13:19:54;4.82;;;2.10;;
70667;SDS011;58242;51.250;-1.118;2023-05-29T13:22:20;3.13;;;2.53;;
70667;SDS011;58242;51.250;-1.118;2023-05-29T13:24:45;2.50;;;1.63;;
70667;SDS011;58242;51.250;-1.118;2023-05-29T13:27:11;2.88;;;2.13;;
70667;SDS011;58242;51.250;-1.118;2023-05-29T13:29:39;5.57;;;2.47;;
70667;SDS011;58242;51.250;-1.118;2023-05-29T13:32:06;3.10;;;2.10;;
70667;SDS011;58242;51.250;-1.118;2023-05-29T13:34:31;3.03;;;2.22;;
70667;SDS011;58242;51.250;-1.118;2023-05-29T13:36:57;3.85;;;2.53;;
70667;SDS011;58242;51.250;-1.118;2023-05-29T13:39:23;2.90;;;2.17;;
70667;SDS011;58242;51.250;-1.118;2023-05-29T13:41:50;4.07;;;2.17;;
70667;SDS011;58242;51.250;-1.118;2023-05-29T13:44:15;4.38;;;2.15;;
70667;SDS011;58242;51.250;-1.118;2023-05-29T13:46:41;2.38;;;1.58;;
70667;SDS011;58242;51.250;-1.118;2023-05-29T13:49:07;4.32;;;2.17;;
70667;SDS011;58242;51.250;-1.118;2023-05-29T13:51:32;5.53;;;3.03;;
70667;SDS011;58242;51.250;-1.118;2023-05-29T13:53:59;3.35;;;2.00;;
70667;SDS011;58242;51.250;-1.118;2023-05-29T13:56:24;2.38;;;1.98;;
70667;SDS011;58242;51.250;-1.118;2023-05-29T13:58:52;4.97;;;2.20;;
70667;SDS011;58242;51.250;-1.118;2023-05-29T14:01:17;4.03;;;2.15;;
70667;SDS011;58242;51.250;-1.118;2023-05-29T14:03:45;3.15;;;2.22;;
70667;SDS011;58242;51.250;-1.118;2023-05-29T14:06:11;2.88;;;2.00;;
70667;SDS011;58242;51.250;-1.118;2023-05-29T14:08:36;4.80;;;2.42;;
70667;SDS011;58242;51.250;-1.118;2023-05-29T14:11:02;2.95;;;1.90;;
70667;SDS011;58242;51.250;-1.118;2023-05-29T14:13:28;5.43;;;2.50;;
70667;SDS011;58242;51.250;-1.118;2023-05-29T14:15:53;3.25;;;2.38;;
70667;SDS011;58242;51.250;-1.118;2023-05-29T14:18:21;3.75;;;2.13;;
70667;SDS011;58242;51.250;-1.118;2023-05-29T14:20:46;3.90;;;2.50;;
70667;SDS011;58242;51.250;-1.118;2023-05-29T14:23:13;3.83;;;2.88;;
70667;SDS011;58242;51.250;-1.118;2023-05-29T14:25:41;3.83;;;2.80;;
70667;SDS011;58242;51.250;-1.118;2023-05-29T14:28:07;3.55;;;2.42;;
70667;SDS011;58242;51.250;-1.118;2023-05-29T14:30:33;2.42;;;1.88;;
70667;SDS011;58242;51.250;-1.118;2023-05-29T14:32:58;3.83;;;2.50;;
70667;SDS011;58242;51.250;-1.118;2023-05-29T14:35:25;3.15;;;2.05;;
70667;SDS011;58242;51.250;-1.118;2023-05-29T14:37:51;4.50;;;2.28;;
70667;SDS011;58242;51.250;-1.118;2023-05-29T14:40:16;6.85;;;2.50;;
70667;SDS011;58242;51.250;-1.118;2023-05-29T14:42:42;3.90;;;2.65;;
70667;SDS011;58242;51.250;-1.118;2023-05-29T14:45:08;5.95;;;2.40;;
70667;SDS011;58242;51.250;-1.118;2023-05-29T14:47:34;3.42;;;2.67;;
70667;SDS011;58242;51.250;-1.118;2023-05-29T14:50:00;3.80;;;2.30;;
70667;SDS011;58242;51.250;-1.118;2023-05-29T14:52:25;4.53;;;2.50;;
70667;SDS011;58242;51.250;-1.118;2023-05-29T14:54:51;4.00;;;2.80;;
70667;SDS011;58242;51.250;-1.118;2023-05-29T14:57:16;6.22;;;2.58;;
70667;SDS011;58242;51.250;-1.118;2023-05-29T14:59:42;4.85;;;2.78;;
70667;SDS011;58242;51.250;-1.118;2023-05-29T15:02:07;4.03;;;2.45;;
70667;SDS011;58242;51.250;-1.118;2023-05-29T15:04:34;4.13;;;2.70;;
70667;SDS011;58242;51.250;-1.118;2023-05-29T15:07:00;3.55;;;2.40;;
70667;SDS011;58242;51.250;-1.118;2023-05-29T15:09:25;3.53;;;2.35;;